Stations météo

réclame
Mon MeteoGroup
K13 Alpha, Pays-Bas (6252): Température de l'air & dewpoint: 17.07.2019 01:00:00 - 23.07.2019 01:00:00 (CEST)K13 Alpha, Pays-Bas (6252): water temperature: 17.07.2019 01:00:00 - 23.07.2019 01:00:00 (CEST)K13 Alpha, Pays-Bas (6252): Vitesse du vent & gusts: 17.07.2019 01:00:00 - 23.07.2019 01:00:00 (CEST)K13 Alpha, Pays-Bas (6252): Direction du vent: 17.07.2019 01:00:00 - 23.07.2019 01:00:00 (CEST)K13 Alpha, Pays-Bas (6252): reduced air pressure: 17.07.2019 01:00:00 - 23.07.2019 01:00:00 (CEST)
Date & Time tt [°C] td [°C] tw [°C] ff [km/h] ff [knt] fx [km/h] fx [knt] dd ppp [hPa]
23.07.2019 01:00:00 18,1 16,8 17,0 16 9 25 14 WSW 1026,0
23.07.2019 00:00:00 18,1 16,8 17,0 31 17 32 18 WSW 1025,7
22.07.2019 23:00:00 17,8 16,6 17,0 34 18 36 19 WSW 1025,4
22.07.2019 22:00:00 18,0 16,6 17,0 39 21 36 19 SW 1024,8
22.07.2019 21:00:00 18,1 16,7 17,0 31 17 32 18 SW 1025,2
22.07.2019 20:00:00 18,0 16,7 17,0 29 16 29 16 SW 1025,2
22.07.2019 19:00:00 18,1 16,7 17,0 34 18 32 18 SW 1025,0
22.07.2019 18:00:00 18,0 16,5 17,0 41 22 43 23 SW 1024,6
22.07.2019 17:00:00 18,0 16,4 17,0 42 23 43 23 SW 1024,5
22.07.2019 16:00:00 17,9 16,4 17,0 42 23 43 23 SW 1024,6
22.07.2019 15:00:00 17,9 16,2 17,0 37 20 40 21 SW 1024,4
22.07.2019 14:00:00 17,8 16,1 17,0 37 20 40 21 SW 1024,6
22.07.2019 13:00:00 17,6 15,9 17,0 44 24 43 23 SW 1024,3
22.07.2019 12:00:00 17,4 15,7 17,0 42 23 43 23 SW 1024,1
22.07.2019 11:00:00 17,0 15,6 16,0 41 22 47 25 SW 1023,8
22.07.2019 10:00:00 16,9 15,4 16,0 44 24 43 23 SW 1023,8
22.07.2019 09:00:00 16,8 15,0 17,0 46 25 47 25 SW 1023,2
22.07.2019 08:00:00 16,8 14,9 17,0 46 25 47 25 SW 1022,8
22.07.2019 07:00:00 16,9 15,2 17,0 48 26 47 25 SW 1023,2
22.07.2019 06:00:00 17,1 15,0 17,0 46 25 47 25 SW 1023,2
22.07.2019 05:00:00 17,1 15,2 17,0 42 23 43 23 SW 1023,5
22.07.2019 04:00:00 17,2 15,4 17,0 41 22 43 23 SW 1023,7
22.07.2019 03:00:00 17,3 15,6 17,0 41 22 40 21 SW 1024,3
22.07.2019 02:00:00 17,3 15,4 17,0 39 21 40 21 SW 1024,7
22.07.2019 01:00:00 17,3 15,1 16,0 39 21 40 21 SSW 1025,3
22.07.2019 00:00:00 17,0 15,1 16,0 39 21 40 21 S 1025,0
21.07.2019 23:00:00 17,0 14,9 16,5 39 21 40 21 S 1025,1
21.07.2019 22:00:00 17,0 14,7 - 39 21 36 19 SSW 1025,1
21.07.2019 21:00:00 17,0 14,4 16,6 37 20 36 19 SSW 1025,1
21.07.2019 20:00:00 17,0 14,5 17,0 29 16 32 18 SSW 1025,0
21.07.2019 19:00:00 17,1 14,9 17,0 26 14 25 14 SSW 1025,6
21.07.2019 18:00:00 17,0 14,9 17,0 26 14 25 14 SSW 1025,9
21.07.2019 17:00:00 16,9 15,0 17,0 22 12 25 14 SSW 1025,7
21.07.2019 16:00:00 17,0 14,1 17,0 21 11 22 12 SW 1025,6
21.07.2019 15:00:00 16,7 14,3 17,0 18 10 22 12 WSW 1025,7
21.07.2019 14:00:00 17,0 14,0 17,0 26 14 25 14 W 1025,0
21.07.2019 13:00:00 16,7 14,1 17,0 26 14 25 14 W 1024,4
21.07.2019 12:00:00 16,5 14,1 17,0 28 15 29 16 W 1023,7
21.07.2019 11:00:00 16,6 14,0 16,0 26 14 29 16 W 1023,3
21.07.2019 10:00:00 16,7 13,3 16,0 29 16 32 18 W 1022,4
21.07.2019 09:00:00 16,4 13,0 16,0 31 17 29 16 W 1021,8
21.07.2019 08:00:00 16,3 12,5 16,0 34 18 32 18 WNW 1021,5
21.07.2019 07:00:00 16,3 12,5 16,0 35 19 40 21 WNW 1020,6
21.07.2019 06:00:00 16,3 12,4 16,0 37 20 40 21 WNW 1019,5
21.07.2019 05:00:00 16,4 13,0 16,0 34 18 36 19 WNW 1018,9
21.07.2019 04:00:00 16,6 12,9 16,0 37 20 40 21 WNW 1018,4
21.07.2019 03:00:00 16,9 12,8 16,0 39 21 40 21 WNW 1018,2
21.07.2019 02:00:00 17,2 12,8 16,0 41 22 40 21 W 1017,9
21.07.2019 01:00:00 17,4 13,0 16,0 39 21 40 21 W 1017,6
21.07.2019 00:00:00 17,3 15,2 16,0 42 23 40 21 W 1017,2
20.07.2019 23:00:00 17,3 15,1 16,0 41 22 40 21 W 1016,4
20.07.2019 22:00:00 17,4 15,0 16,0 41 22 40 21 W 1015,6
20.07.2019 21:00:00 17,3 15,1 16,0 34 18 36 19 W 1015,0
20.07.2019 20:00:00 17,6 15,9 16,0 48 26 47 25 SW 1014,5
20.07.2019 19:00:00 17,4 16,2 17,0 42 23 43 23 SW 1013,8
20.07.2019 18:00:00 17,4 16,4 17,0 44 24 47 25 SSW 1013,4
20.07.2019 17:00:00 17,5 16,5 17,0 50 27 50 27 SSW 1013,1
20.07.2019 16:00:00 17,4 16,5 17,0 41 22 43 23 SSW 1013,3
20.07.2019 15:00:00 17,4 16,4 16,0 39 21 40 21 S 1013,4
20.07.2019 14:00:00 17,2 16,1 16,0 42 23 43 23 SSW 1013,2
20.07.2019 13:00:00 17,3 16,2 16,0 42 23 43 23 SSW 1013,1
20.07.2019 12:00:00 17,1 16,1 16,0 37 20 40 21 SSW 1012,8
20.07.2019 11:00:00 17,0 16,0 16,0 34 18 36 19 SSW 1012,7
20.07.2019 10:00:00 16,7 16,1 16,0 35 19 32 18 SSW 1013,0
20.07.2019 09:00:00 16,3 15,9 16,0 28 15 32 18 SSW 1012,8
20.07.2019 08:00:00 16,2 16,0 16,0 31 17 43 23 SSW 1012,6
20.07.2019 07:00:00 16,4 16,0 16,0 41 22 43 23 S 1013,2
20.07.2019 06:00:00 16,5 16,4 16,0 39 21 43 23 S 1013,2
20.07.2019 05:00:00 16,7 16,3 16,0 37 20 40 21 SSW 1013,8
20.07.2019 04:00:00 16,8 16,6 16,0 42 23 47 25 S 1014,1
20.07.2019 03:00:00 16,8 16,6 16,0 39 21 43 23 S 1014,5
20.07.2019 02:00:00 16,6 16,2 16,0 35 19 36 19 SSW 1014,8
20.07.2019 01:00:00 16,8 15,9 16,0 37 20 40 21 SSW 1015,4
20.07.2019 00:00:00 16,6 15,9 16,0 41 22 43 23 S 1015,7
19.07.2019 23:00:00 16,4 15,9 16,0 39 21 40 21 S 1015,7
19.07.2019 22:00:00 16,4 15,5 16,0 42 23 43 23 S 1016,0
19.07.2019 21:00:00 16,5 15,2 - 44 24 47 25 SSW 1016,1
19.07.2019 20:00:00 16,7 14,5 - 41 22 40 21 SSW 1016,5
19.07.2019 19:00:00 16,8 14,3 16,0 37 20 36 19 S 1017,0
19.07.2019 18:00:00 16,8 15,1 17,0 34 18 36 19 SSW 1017,4
19.07.2019 17:00:00 16,9 14,3 17,0 34 18 32 18 SSW 1017,7
19.07.2019 16:00:00 16,9 14,5 17,0 29 16 32 18 SSW 1018,0
19.07.2019 15:00:00 16,9 14,2 17,0 31 17 29 16 SSW 1018,2
19.07.2019 14:00:00 16,8 14,3 17,0 24 13 25 14 SSW 1018,2
19.07.2019 13:00:00 16,8 14,9 17,0 22 12 22 12 SSW 1018,2
19.07.2019 12:00:00 17,0 15,4 17,0 16 9 18 10 SSW 1018,4
19.07.2019 11:00:00 16,9 15,7 17,0 15 8 14 8 S 1018,4
19.07.2019 10:00:00 18,1 15,6 16,0 4 2 7 4 SSW 1018,7
19.07.2019 09:00:00 17,4 15,7 16,0 4 2 7 4 W 1018,7
19.07.2019 08:00:00 17,0 15,2 16,0 13 7 14 8 WSW 1018,5
19.07.2019 07:00:00 16,4 15,4 16,0 18 10 25 14 WSW 1017,8
19.07.2019 06:00:00 16,2 15,1 16,0 26 14 25 14 WSW 1017,7
19.07.2019 05:00:00 16,1 14,8 - 24 13 22 12 SW 1017,2
19.07.2019 04:00:00 15,9 14,8 16,0 18 10 22 12 SW 1017,1
19.07.2019 03:00:00 15,9 14,3 16,0 24 13 22 12 SW 1017,2
19.07.2019 02:00:00 15,9 14,1 16,0 22 12 22 12 SW 1017,0
19.07.2019 01:00:00 15,9 13,1 16,0 16 9 14 8 SW 1016,9
19.07.2019 00:00:00 15,7 13,4 16,0 11 6 11 6 SW 1016,7
18.07.2019 23:00:00 15,7 13,3 16,0 11 6 11 6 W 1016,7
18.07.2019 22:00:00 15,6 13,4 16,0 9 5 11 6 W 1016,3
18.07.2019 21:00:00 15,9 13,6 16,0 8 4 7 4 W 1016,2
18.07.2019 20:00:00 16,2 12,8 16,0 5 3 11 6 NNW 1016,0
18.07.2019 19:00:00 15,9 11,2 16,0 16 9 22 12 NNW 1015,7
18.07.2019 18:00:00 15,5 14,8 16,0 15 8 22 12 WSW 1015,4
18.07.2019 17:00:00 15,9 15,2 16,0 11 6 14 8 W 1015,4
18.07.2019 16:00:00 15,6 15,5 16,0 13 7 25 14 SW 1015,2
18.07.2019 15:00:00 16,0 15,7 16,0 26 14 29 16 SW 1015,1
18.07.2019 14:00:00 16,4 15,2 16,0 26 14 29 16 SSW 1015,2
18.07.2019 13:00:00 16,7 14,8 16,0 26 14 25 14 SW 1015,3
18.07.2019 12:00:00 17,5 14,5 16,0 26 14 29 16 WSW 1015,1
18.07.2019 11:00:00 17,2 14,6 16,0 28 15 29 16 WSW 1015,1
18.07.2019 10:00:00 16,8 15,7 16,0 24 13 25 14 SW 1014,9
18.07.2019 09:00:00 16,5 15,6 16,0 26 14 25 14 SSW 1014,6
18.07.2019 08:00:00 16,5 15,0 16,0 29 16 29 16 SW 1014,9
18.07.2019 07:00:00 16,7 15,6 16,0 24 13 25 14 S 1015,0
18.07.2019 06:00:00 16,7 15,3 16,0 22 12 25 14 S 1015,3
18.07.2019 05:00:00 16,7 14,8 16,0 18 10 22 12 SSW 1015,9
18.07.2019 04:00:00 17,0 14,7 16,0 22 12 32 18 SW 1016,4
18.07.2019 03:00:00 17,1 14,7 16,0 35 19 32 18 S 1016,9
18.07.2019 02:00:00 17,2 14,1 16,0 31 17 32 18 S 1017,4
18.07.2019 01:00:00 17,2 13,8 16,0 37 20 36 19 S 1017,6
18.07.2019 00:00:00 17,4 13,3 16,0 37 20 36 19 SSE 1017,8
17.07.2019 23:00:00 17,3 13,6 16,0 34 18 32 18 S 1018,1
17.07.2019 22:00:00 16,9 14,2 16,0 35 19 32 18 S 1018,2
17.07.2019 21:00:00 16,6 15,0 16,0 31 17 32 18 S 1018,4
17.07.2019 20:00:00 16,6 15,6 16,5 37 20 32 18 S 1018,6
17.07.2019 19:00:00 16,7 15,8 16,0 31 17 32 18 S 1018,9
17.07.2019 18:00:00 16,8 15,7 16,0 34 18 32 18 S 1019,4
17.07.2019 17:00:00 16,9 15,7 17,0 34 18 32 18 S 1019,7
17.07.2019 16:00:00 17,0 15,1 17,0 34 18 32 18 S 1020,2
17.07.2019 15:00:00 17,0 14,9 17,0 31 17 29 16 S 1020,4
17.07.2019 14:00:00 16,8 14,8 16,0 29 16 29 16 S 1020,6
17.07.2019 13:00:00 16,6 14,6 16,0 28 15 29 16 S 1020,9
17.07.2019 12:00:00 16,4 14,5 16,0 26 14 25 14 S 1020,9
17.07.2019 11:00:00 16,3 14,8 16,0 26 14 25 14 S 1021,0
17.07.2019 10:00:00 16,0 14,7 16,0 22 12 22 12 S 1021,3
17.07.2019 09:00:00 16,0 14,7 16,0 21 11 22 12 S 1021,4
17.07.2019 08:00:00 15,9 14,7 16,0 22 12 22 12 S 1021,6
17.07.2019 07:00:00 15,7 14,7 16,0 18 10 18 10 S 1021,3
17.07.2019 06:00:00 15,5 14,6 16,0 16 9 18 10 S 1020,9
17.07.2019 05:00:00 15,5 14,6 16,0 13 7 14 8 S 1021,0
17.07.2019 04:00:00 15,4 14,3 16,0 13 7 14 8 SSW 1021,4
17.07.2019 03:00:00 15,4 14,3 16,0 11 6 11 6 S 1021,8
17.07.2019 02:00:00 15,4 14,1 16,0 9 5 14 8 S 1022,1
17.07.2019 01:00:00 15,4 14,0 16,0 13 7 14 8 S 1022,3

tt = Température de l'air
td = dewpoint
tw = water temperature
ff = Vitesse du vent
fx = gusts
dd = Direction du vent
ppp = reduced air pressure

stations d'obs. à proximité